sensor_id;sensor_type;location;lat;lon;timestamp;P1;durP1;ratioP1;P2;durP2;ratioP2
49450;SDS011;35336;48.400;10.886;2023-02-03T00:00:04;5.45;;;1.10;;
49450;SDS011;35336;48.400;10.886;2023-02-03T00:00:21;5.40;;;1.40;;
49450;SDS011;35336;48.400;10.886;2023-02-03T00:00:36;2.60;;;1.10;;
49450;SDS011;35336;48.400;10.886;2023-02-03T00:00:52;1.67;;;0.90;;
49450;SDS011;35336;48.400;10.886;2023-02-03T00:01:07;2.90;;;1.20;;
49450;SDS011;35336;48.400;10.886;2023-02-03T00:01:22;4.32;;;1.30;;
49450;SDS011;35336;48.400;10.886;2023-02-03T00:01:38;4.67;;;1.17;;
49450;SDS011;35336;48.400;10.886;2023-02-03T00:01:53;3.47;;;0.97;;
49450;SDS011;35336;48.400;10.886;2023-02-03T00:02:08;5.10;;;1.40;;
49450;SDS011;35336;48.400;10.886;2023-02-03T00:02:24;6.10;;;1.57;;
49450;SDS011;35336;48.400;10.886;2023-02-03T00:02:39;4.30;;;1.20;;
49450;SDS011;35336;48.400;10.886;2023-02-03T00:02:54;3.80;;;1.30;;
49450;SDS011;35336;48.400;10.886;2023-02-03T00:03:10;3.00;;;1.13;;
49450;SDS011;35336;48.400;10.886;2023-02-03T00:03:25;2.97;;;1.00;;
49450;SDS011;35336;48.400;10.886;2023-02-03T00:03:40;3.63;;;1.10;;
49450;SDS011;35336;48.400;10.886;2023-02-03T00:03:56;4.77;;;1.60;;
49450;SDS011;35336;48.400;10.886;2023-02-03T00:04:11;4.30;;;1.50;;
49450;SDS011;35336;48.400;10.886;2023-02-03T00:04:26;3.92;;;1.17;;
49450;SDS011;35336;48.400;10.886;2023-02-03T00:04:42;6.73;;;1.67;;
49450;SDS011;35336;48.400;10.886;2023-02-03T00:04:57;6.67;;;1.57;;
49450;SDS011;35336;48.400;10.886;2023-02-03T00:05:12;6.15;;;1.52;;
49450;SDS011;35336;48.400;10.886;2023-02-03T00:05:28;7.47;;;1.50;;
49450;SDS011;35336;48.400;10.886;2023-02-03T00:05:44;5.95;;;1.13;;
49450;SDS011;35336;48.400;10.886;2023-02-03T00:06:00;5.75;;;1.08;;
49450;SDS011;35336;48.400;10.886;2023-02-03T00:06:17;5.22;;;1.60;;
49450;SDS011;35336;48.400;10.886;2023-02-03T00:06:32;5.72;;;1.80;;
49450;SDS011;35336;48.400;10.886;2023-02-03T00:06:48;3.85;;;1.20;;
49450;SDS011;35336;48.400;10.886;2023-02-03T00:07:03;3.93;;;1.10;;
49450;SDS011;35336;48.400;10.886;2023-02-03T00:07:19;4.70;;;1.17;;
49450;SDS011;35336;48.400;10.886;2023-02-03T00:07:35;4.33;;;1.23;;
49450;SDS011;35336;48.400;10.886;2023-02-03T00:07:51;4.18;;;1.20;;
49450;SDS011;35336;48.400;10.886;2023-02-03T00:08:07;5.25;;;1.40;;
49450;SDS011;35336;48.400;10.886;2023-02-03T00:08:24;5.45;;;1.35;;
49450;SDS011;35336;48.400;10.886;2023-02-03T00:08:39;4.18;;;1.13;;
49450;SDS011;35336;48.400;10.886;2023-02-03T00:08:55;4.23;;;1.30;;
49450;SDS011;35336;48.400;10.886;2023-02-03T00:09:11;5.20;;;1.20;;
49450;SDS011;35336;48.400;10.886;2023-02-03T00:09:26;5.18;;;1.20;;
49450;SDS011;35336;48.400;10.886;2023-02-03T00:09:41;4.40;;;1.13;;
49450;SDS011;35336;48.400;10.886;2023-02-03T00:09:57;5.45;;;1.27;;
49450;SDS011;35336;48.400;10.886;2023-02-03T00:10:12;5.30;;;1.47;;
49450;SDS011;35336;48.400;10.886;2023-02-03T00:10:28;4.72;;;1.45;;
49450;SDS011;35336;48.400;10.886;2023-02-03T00:10:43;4.27;;;1.17;;
49450;SDS011;35336;48.400;10.886;2023-02-03T00:10:59;4.03;;;1.10;;
49450;SDS011;35336;48.400;10.886;2023-02-03T00:11:14;3.33;;;1.20;;
49450;SDS011;35336;48.400;10.886;2023-02-03T00:11:30;2.47;;;1.20;;
49450;SDS011;35336;48.400;10.886;2023-02-03T00:11:46;2.53;;;1.10;;
49450;SDS011;35336;48.400;10.886;2023-02-03T00:12:01;3.83;;;1.23;;
49450;SDS011;35336;48.400;10.886;2023-02-03T00:12:16;4.77;;;1.30;;
49450;SDS011;35336;48.400;10.886;2023-02-03T00:12:32;3.75;;;1.15;;
49450;SDS011;35336;48.400;10.886;2023-02-03T00:12:48;3.22;;;1.15;;
49450;SDS011;35336;48.400;10.886;2023-02-03T00:13:04;3.92;;;1.60;;
49450;SDS011;35336;48.400;10.886;2023-02-03T00:13:21;5.00;;;1.77;;
49450;SDS011;35336;48.400;10.886;2023-02-03T00:13:36;7.10;;;1.53;;
49450;SDS011;35336;48.400;10.886;2023-02-03T00:13:51;6.83;;;1.37;;
49450;SDS011;35336;48.400;10.886;2023-02-03T00:14:07;5.20;;;1.50;;
49450;SDS011;35336;48.400;10.886;2023-02-03T00:14:22;6.80;;;1.67;;
49450;SDS011;35336;48.400;10.886;2023-02-03T00:14:37;5.23;;;1.40;;
49450;SDS011;35336;48.400;10.886;2023-02-03T00:14:53;3.13;;;1.23;;
49450;SDS011;35336;48.400;10.886;2023-02-03T00:15:08;5.70;;;1.33;;
49450;SDS011;35336;48.400;10.886;2023-02-03T00:15:24;7.13;;;1.40;;
49450;SDS011;35336;48.400;10.886;2023-02-03T00:15:39;5.43;;;1.30;;
49450;SDS011;35336;48.400;10.886;2023-02-03T00:15:54;4.50;;;1.25;;
49450;SDS011;35336;48.400;10.886;2023-02-03T00:16:10;4.07;;;1.20;;
49450;SDS011;35336;48.400;10.886;2023-02-03T00:16:25;5.63;;;1.50;;
49450;SDS011;35336;48.400;10.886;2023-02-03T00:16:40;6.10;;;1.77;;
49450;SDS011;35336;48.400;10.886;2023-02-03T00:16:56;4.40;;;1.50;;
49450;SDS011;35336;48.400;10.886;2023-02-03T00:17:11;4.53;;;1.30;;
49450;SDS011;35336;48.400;10.886;2023-02-03T00:17:26;5.20;;;1.30;;
49450;SDS011;35336;48.400;10.886;2023-02-03T00:17:42;4.47;;;1.20;;
49450;SDS011;35336;48.400;10.886;2023-02-03T00:17:57;4.03;;;1.10;;
49450;SDS011;35336;48.400;10.886;2023-02-03T00:18:12;3.93;;;1.23;;
49450;SDS011;35336;48.400;10.886;2023-02-03T00:18:27;3.30;;;1.35;;
49450;SDS011;35336;48.400;10.886;2023-02-03T00:18:43;3.83;;;1.40;;
49450;SDS011;35336;48.400;10.886;2023-02-03T00:18:58;4.97;;;1.30;;
49450;SDS011;35336;48.400;10.886;2023-02-03T00:19:13;6.22;;;1.27;;
49450;SDS011;35336;48.400;10.886;2023-02-03T00:19:28;5.37;;;1.20;;
49450;SDS011;35336;48.400;10.886;2023-02-03T00:19:44;4.47;;;1.23;;
49450;SDS011;35336;48.400;10.886;2023-02-03T00:19:59;4.30;;;1.17;;
49450;SDS011;35336;48.400;10.886;2023-02-03T00:20:15;3.70;;;1.05;;
49450;SDS011;35336;48.400;10.886;2023-02-03T00:20:30;3.70;;;1.00;;
49450;SDS011;35336;48.400;10.886;2023-02-03T00:20:45;4.07;;;1.25;;
49450;SDS011;35336;48.400;10.886;2023-02-03T00:21:01;4.80;;;1.50;;
49450;SDS011;35336;48.400;10.886;2023-02-03T00:21:16;4.47;;;1.27;;
49450;SDS011;35336;48.400;10.886;2023-02-03T00:21:32;3.50;;;1.20;;
49450;SDS011;35336;48.400;10.886;2023-02-03T00:21:47;5.43;;;1.40;;
49450;SDS011;35336;48.400;10.886;2023-02-03T00:22:02;6.00;;;1.40;;
49450;SDS011;35336;48.400;10.886;2023-02-03T00:22:17;5.60;;;1.70;;
49450;SDS011;35336;48.400;10.886;2023-02-03T00:22:33;6.13;;;1.60;;
49450;SDS011;35336;48.400;10.886;2023-02-03T00:22:48;5.27;;;1.20;;
49450;SDS011;35336;48.400;10.886;2023-02-03T00:23:04;4.30;;;1.13;;
49450;SDS011;35336;48.400;10.886;2023-02-03T00:23:21;2.83;;;1.02;;
49450;SDS011;35336;48.400;10.886;2023-02-03T00:23:36;3.87;;;1.17;;
49450;SDS011;35336;48.400;10.886;2023-02-03T00:23:51;4.25;;;1.13;;
49450;SDS011;35336;48.400;10.886;2023-02-03T00:24:07;5.37;;;1.40;;
49450;SDS011;35336;48.400;10.886;2023-02-03T00:24:22;6.30;;;1.48;;
49450;SDS011;35336;48.400;10.886;2023-02-03T00:24:37;6.73;;;1.40;;
49450;SDS011;35336;48.400;10.886;2023-02-03T00:24:53;6.37;;;1.50;;
49450;SDS011;35336;48.400;10.886;2023-02-03T00:25:08;5.75;;;1.63;;
49450;SDS011;35336;48.400;10.886;2023-02-03T00:25:23;5.83;;;1.70;;
49450;SDS011;35336;48.400;10.886;2023-02-03T00:25:39;6.23;;;1.40;;
49450;SDS011;35336;48.400;10.886;2023-02-03T00:25:54;7.55;;;1.23;;
49450;SDS011;35336;48.400;10.886;2023-02-03T00:26:11;6.30;;;1.30;;
49450;SDS011;35336;48.400;10.886;2023-02-03T00:26:28;5.70;;;1.45;;
49450;SDS011;35336;48.400;10.886;2023-02-03T00:26:43;3.57;;;1.50;;
49450;SDS011;35336;48.400;10.886;2023-02-03T00:26:59;3.90;;;1.50;;
49450;SDS011;35336;48.400;10.886;2023-02-03T00:27:14;5.10;;;1.58;;
49450;SDS011;35336;48.400;10.886;2023-02-03T00:27:30;4.97;;;1.43;;
49450;SDS011;35336;48.400;10.886;2023-02-03T00:27:46;3.88;;;1.27;;
49450;SDS011;35336;48.400;10.886;2023-02-03T00:28:01;4.43;;;1.17;;
49450;SDS011;35336;48.400;10.886;2023-02-03T00:28:17;6.00;;;1.40;;
49450;SDS011;35336;48.400;10.886;2023-02-03T00:28:32;5.87;;;1.30;;
49450;SDS011;35336;48.400;10.886;2023-02-03T00:28:48;4.30;;;1.00;;
49450;SDS011;35336;48.400;10.886;2023-02-03T00:29:03;4.43;;;1.20;;
49450;SDS011;35336;48.400;10.886;2023-02-03T00:29:18;5.47;;;1.23;;
49450;SDS011;35336;48.400;10.886;2023-02-03T00:29:34;5.30;;;1.37;;
49450;SDS011;35336;48.400;10.886;2023-02-03T00:29:49;5.80;;;1.75;;
49450;SDS011;35336;48.400;10.886;2023-02-03T00:30:04;7.07;;;1.50;;
49450;SDS011;35336;48.400;10.886;2023-02-03T00:30:20;6.20;;;1.10;;
49450;SDS011;35336;48.400;10.886;2023-02-03T00:30:35;4.60;;;1.30;;
49450;SDS011;35336;48.400;10.886;2023-02-03T00:30:51;3.97;;;1.30;;
49450;SDS011;35336;48.400;10.886;2023-02-03T00:31:16;4.00;;;1.20;;
49450;SDS011;35336;48.400;10.886;2023-02-03T00:31:33;5.05;;;1.38;;
49450;SDS011;35336;48.400;10.886;2023-02-03T00:31:48;5.63;;;1.30;;
49450;SDS011;35336;48.400;10.886;2023-02-03T00:32:04;4.20;;;1.17;;
49450;SDS011;35336;48.400;10.886;2023-02-03T00:32:19;2.88;;;1.00;;
49450;SDS011;35336;48.400;10.886;2023-02-03T00:32:35;4.18;;;1.10;;
49450;SDS011;35336;48.400;10.886;2023-02-03T00:32:51;4.25;;;1.13;;
49450;SDS011;35336;48.400;10.886;2023-02-03T00:33:06;3.60;;;1.30;;
49450;SDS011;35336;48.400;10.886;2023-02-03T00:33:22;4.97;;;1.40;;
49450;SDS011;35336;48.400;10.886;2023-02-03T00:33:37;6.43;;;1.40;;
49450;SDS011;35336;48.400;10.886;2023-02-03T00:33:53;6.47;;;1.60;;
49450;SDS011;35336;48.400;10.886;2023-02-03T00:34:10;6.05;;;1.33;;
49450;SDS011;35336;48.400;10.886;2023-02-03T00:34:28;4.13;;;1.17;;
49450;SDS011;35336;48.400;10.886;2023-02-03T00:34:44;5.00;;;1.15;;
49450;SDS011;35336;48.400;10.886;2023-02-03T00:34:59;7.28;;;1.25;;
49450;SDS011;35336;48.400;10.886;2023-02-03T00:35:15;6.13;;;1.23;;
49450;SDS011;35336;48.400;10.886;2023-02-03T00:35:30;4.83;;;1.17;;
49450;SDS011;35336;48.400;10.886;2023-02-03T00:35:46;4.60;;;1.13;;
49450;SDS011;35336;48.400;10.886;2023-02-03T00:36:04;4.90;;;1.20;;
49450;SDS011;35336;48.400;10.886;2023-02-03T00:36:20;5.32;;;1.50;;
49450;SDS011;35336;48.400;10.886;2023-02-03T00:36:36;4.68;;;1.50;;
49450;SDS011;35336;48.400;10.886;2023-02-03T00:36:52;4.20;;;1.30;;
49450;SDS011;35336;48.400;10.886;2023-02-03T00:37:07;5.73;;;1.50;;
49450;SDS011;35336;48.400;10.886;2023-02-03T00:37:22;5.95;;;1.50;;
49450;SDS011;35336;48.400;10.886;2023-02-03T00:37:38;5.33;;;1.30;;
49450;SDS011;35336;48.400;10.886;2023-02-03T00:37:53;5.20;;;1.40;;
49450;SDS011;35336;48.400;10.886;2023-02-03T00:38:10;5.57;;;1.52;;
49450;SDS011;35336;48.400;10.886;2023-02-03T00:38:27;5.73;;;1.50;;
49450;SDS011;35336;48.400;10.886;2023-02-03T00:38:43;3.85;;;1.23;;
49450;SDS011;35336;48.400;10.886;2023-02-03T00:38:59;6.73;;;1.27;;
49450;SDS011;35336;48.400;10.886;2023-02-03T00:39:15;8.55;;;1.58;;
49450;SDS011;35336;48.400;10.886;2023-02-03T00:39:30;5.22;;;1.45;;
49450;SDS011;35336;48.400;10.886;2023-02-03T00:39:45;4.43;;;1.60;;
49450;SDS011;35336;48.400;10.886;2023-02-03T00:40:01;4.07;;;1.47;;
49450;SDS011;35336;48.400;10.886;2023-02-03T00:40:16;4.30;;;1.20;;
49450;SDS011;35336;48.400;10.886;2023-02-03T00:40:32;4.50;;;1.17;;
49450;SDS011;35336;48.400;10.886;2023-02-03T00:40:50;4.13;;;1.10;;
49450;SDS011;35336;48.400;10.886;2023-02-03T00:41:08;3.17;;;0.93;;
49450;SDS011;35336;48.400;10.886;2023-02-03T00:41:26;6.07;;;1.17;;
49450;SDS011;35336;48.400;10.886;2023-02-03T00:41:43;5.85;;;1.25;;
49450;SDS011;35336;48.400;10.886;2023-02-03T00:41:58;5.18;;;1.20;;
49450;SDS011;35336;48.400;10.886;2023-02-03T00:42:14;3.77;;;1.07;;
49450;SDS011;35336;48.400;10.886;2023-02-03T00:42:29;4.93;;;1.15;;
49450;SDS011;35336;48.400;10.886;2023-02-03T00:42:45;5.90;;;1.33;;
49450;SDS011;35336;48.400;10.886;2023-02-03T00:43:00;5.22;;;1.27;;
49450;SDS011;35336;48.400;10.886;2023-02-03T00:43:16;6.07;;;1.30;;
49450;SDS011;35336;48.400;10.886;2023-02-03T00:43:31;5.13;;;1.23;;
49450;SDS011;35336;48.400;10.886;2023-02-03T00:43:47;3.47;;;1.00;;
49450;SDS011;35336;48.400;10.886;2023-02-03T00:44:02;5.15;;;1.17;;
49450;SDS011;35336;48.400;10.886;2023-02-03T00:44:18;5.30;;;1.57;;
49450;SDS011;35336;48.400;10.886;2023-02-03T00:44:33;4.83;;;1.60;;
49450;SDS011;35336;48.400;10.886;2023-02-03T00:44:48;4.93;;;1.45;;
49450;SDS011;35336;48.400;10.886;2023-02-03T00:45:03;4.47;;;1.30;;
49450;SDS011;35336;48.400;10.886;2023-02-03T00:45:19;4.25;;;1.17;;
49450;SDS011;35336;48.400;10.886;2023-02-03T00:45:34;4.07;;;1.20;;
49450;SDS011;35336;48.400;10.886;2023-02-03T00:45:50;3.77;;;1.57;;
49450;SDS011;35336;48.400;10.886;2023-02-03T00:46:05;5.53;;;1.80;;
49450;SDS011;35336;48.400;10.886;2023-02-03T00:46:20;5.40;;;1.37;;
49450;SDS011;35336;48.400;10.886;2023-02-03T00:46:36;3.97;;;1.23;;
49450;SDS011;35336;48.400;10.886;2023-02-03T00:46:51;3.75;;;1.20;;
49450;SDS011;35336;48.400;10.886;2023-02-03T00:47:06;3.27;;;1.10;;
49450;SDS011;35336;48.400;10.886;2023-02-03T00:47:23;4.05;;;1.02;;
49450;SDS011;35336;48.400;10.886;2023-02-03T00:47:38;4.43;;;1.13;;
49450;SDS011;35336;48.400;10.886;2023-02-03T00:47:54;4.10;;;1.27;;
49450;SDS011;35336;48.400;10.886;2023-02-03T00:48:09;4.60;;;1.30;;
49450;SDS011;35336;48.400;10.886;2023-02-03T00:48:24;4.40;;;1.13;;
49450;SDS011;35336;48.400;10.886;2023-02-03T00:48:39;3.23;;;1.20;;
49450;SDS011;35336;48.400;10.886;2023-02-03T00:48:55;4.38;;;1.33;;
49450;SDS011;35336;48.400;10.886;2023-02-03T00:49:10;5.87;;;1.63;;
49450;SDS011;35336;48.400;10.886;2023-02-03T00:49:25;4.97;;;1.60;;
49450;SDS011;35336;48.400;10.886;2023-02-03T00:49:41;4.95;;;1.75;;
49450;SDS011;35336;48.400;10.886;2023-02-03T00:49:56;7.43;;;1.70;;
49450;SDS011;35336;48.400;10.886;2023-02-03T00:50:11;7.23;;;1.30;;
49450;SDS011;35336;48.400;10.886;2023-02-03T00:50:27;4.83;;;1.37;;
49450;SDS011;35336;48.400;10.886;2023-02-03T00:50:44;5.32;;;1.50;;
49450;SDS011;35336;48.400;10.886;2023-02-03T00:51:01;5.00;;;1.30;;
49450;SDS011;35336;48.400;10.886;2023-02-03T00:51:16;3.57;;;1.10;;
49450;SDS011;35336;48.400;10.886;2023-02-03T00:51:32;2.90;;;1.10;;
49450;SDS011;35336;48.400;10.886;2023-02-03T00:51:48;3.63;;;1.33;;
49450;SDS011;35336;48.400;10.886;2023-02-03T00:52:04;5.65;;;1.55;;
49450;SDS011;35336;48.400;10.886;2023-02-03T00:52:19;13.03;;;2.00;;
49450;SDS011;35336;48.400;10.886;2023-02-03T00:52:35;12.27;;;1.98;;
49450;SDS011;35336;48.400;10.886;2023-02-03T00:52:50;5.00;;;1.30;;
49450;SDS011;35336;48.400;10.886;2023-02-03T00:53:05;4.23;;;1.10;;
49450;SDS011;35336;48.400;10.886;2023-02-03T00:53:21;4.93;;;1.13;;
49450;SDS011;35336;48.400;10.886;2023-02-03T00:53:36;6.53;;;1.20;;
49450;SDS011;35336;48.400;10.886;2023-02-03T00:53:51;6.32;;;1.33;;
49450;SDS011;35336;48.400;10.886;2023-02-03T00:54:07;6.23;;;1.43;;
49450;SDS011;35336;48.400;10.886;2023-02-03T00:54:22;5.37;;;1.53;;
49450;SDS011;35336;48.400;10.886;2023-02-03T00:54:37;3.47;;;1.33;;
49450;SDS011;35336;48.400;10.886;2023-02-03T00:54:53;2.53;;;1.10;;
49450;SDS011;35336;48.400;10.886;2023-02-03T00:55:08;3.63;;;1.20;;
49450;SDS011;35336;48.400;10.886;2023-02-03T00:55:23;3.87;;;1.00;;
49450;SDS011;35336;48.400;10.886;2023-02-03T00:55:39;3.20;;;1.00;;
49450;SDS011;35336;48.400;10.886;2023-02-03T00:55:54;6.13;;;1.20;;
49450;SDS011;35336;48.400;10.886;2023-02-03T00:56:09;6.90;;;1.30;;
49450;SDS011;35336;48.400;10.886;2023-02-03T00:56:24;3.80;;;1.30;;
49450;SDS011;35336;48.400;10.886;2023-02-03T00:56:40;4.80;;;1.33;;
49450;SDS011;35336;48.400;10.886;2023-02-03T00:56:55;8.03;;;1.40;;
49450;SDS011;35336;48.400;10.886;2023-02-03T00:57:10;7.75;;;1.60;;
49450;SDS011;35336;48.400;10.886;2023-02-03T00:57:26;5.10;;;1.70;;
49450;SDS011;35336;48.400;10.886;2023-02-03T00:57:41;4.20;;;1.37;;
49450;SDS011;35336;48.400;10.886;2023-02-03T00:57:56;4.95;;;1.20;;
49450;SDS011;35336;48.400;10.886;2023-02-03T00:58:11;4.53;;;1.20;;
49450;SDS011;35336;48.400;10.886;2023-02-03T00:58:27;3.40;;;1.13;;
49450;SDS011;35336;48.400;10.886;2023-02-03T00:58:42;4.70;;;1.23;;
49450;SDS011;35336;48.400;10.886;2023-02-03T00:58:57;7.43;;;1.30;;
49450;SDS011;35336;48.400;10.886;2023-02-03T00:59:13;6.43;;;1.30;;
49450;SDS011;35336;48.400;10.886;2023-02-03T00:59:28;3.33;;;1.00;;
49450;SDS011;35336;48.400;10.886;2023-02-03T00:59:43;4.77;;;1.13;;
49450;SDS011;35336;48.400;10.886;2023-02-03T00:59:59;6.37;;;1.47;;
49450;SDS011;35336;48.400;10.886;2023-02-03T01:00:14;5.03;;;1.53;;
49450;SDS011;35336;48.400;10.886;2023-02-03T01:00:30;4.50;;;1.30;;
49450;SDS011;35336;48.400;10.886;2023-02-03T01:00:45;5.10;;;1.30;;
49450;SDS011;35336;48.400;10.886;2023-02-03T01:01:00;5.50;;;1.50;;
49450;SDS011;35336;48.400;10.886;2023-02-03T01:01:15;5.13;;;1.27;;
49450;SDS011;35336;48.400;10.886;2023-02-03T01:01:31;5.17;;;1.30;;
49450;SDS011;35336;48.400;10.886;2023-02-03T01:01:47;5.10;;;1.42;;
49450;SDS011;35336;48.400;10.886;2023-02-03T01:02:02;3.57;;;1.13;;
49450;SDS011;35336;48.400;10.886;2023-02-03T01:02:18;3.67;;;1.00;;
49450;SDS011;35336;48.400;10.886;2023-02-03T01:02:33;5.75;;;1.40;;
49450;SDS011;35336;48.400;10.886;2023-02-03T01:02:48;8.13;;;1.73;;
49450;SDS011;35336;48.400;10.886;2023-02-03T01:03:04;7.37;;;1.57;;
49450;SDS011;35336;48.400;10.886;2023-02-03T01:03:19;5.07;;;1.30;;
49450;SDS011;35336;48.400;10.886;2023-02-03T01:03:35;6.03;;;1.37;;
49450;SDS011;35336;48.400;10.886;2023-02-03T01:03:50;6.00;;;1.40;;
49450;SDS011;35336;48.400;10.886;2023-02-03T01:04:05;6.13;;;1.63;;
49450;SDS011;35336;48.400;10.886;2023-02-03T01:04:20;7.27;;;1.90;;
49450;SDS011;35336;48.400;10.886;2023-02-03T01:04:36;6.37;;;1.77;;
49450;SDS011;35336;48.400;10.886;2023-02-03T01:04:51;4.90;;;1.50;;
49450;SDS011;35336;48.400;10.886;2023-02-03T01:05:06;5.70;;;1.57;;
49450;SDS011;35336;48.400;10.886;2023-02-03T01:05:22;6.85;;;1.90;;
49450;SDS011;35336;48.400;10.886;2023-02-03T01:05:37;6.33;;;1.93;;
49450;SDS011;35336;48.400;10.886;2023-02-03T01:05:53;7.93;;;2.03;;
49450;SDS011;35336;48.400;10.886;2023-02-03T01:06:12;7.80;;;2.00;;
49450;SDS011;35336;48.400;10.886;2023-02-03T01:06:30;7.00;;;1.98;;
49450;SDS011;35336;48.400;10.886;2023-02-03T01:06:45;6.25;;;1.67;;
49450;SDS011;35336;48.400;10.886;2023-02-03T01:07:00;5.53;;;1.90;;
49450;SDS011;35336;48.400;10.886;2023-02-03T01:07:16;6.13;;;1.95;;
49450;SDS011;35336;48.400;10.886;2023-02-03T01:07:31;6.10;;;1.70;;
49450;SDS011;35336;48.400;10.886;2023-02-03T01:07:47;7.63;;;1.65;;
49450;SDS011;35336;48.400;10.886;2023-02-03T01:08:02;6.63;;;1.43;;
49450;SDS011;35336;48.400;10.886;2023-02-03T01:08:17;4.20;;;1.30;;
49450;SDS011;35336;48.400;10.886;2023-02-03T01:08:33;3.58;;;1.27;;
49450;SDS011;35336;48.400;10.886;2023-02-03T01:08:48;3.50;;;1.13;;
49450;SDS011;35336;48.400;10.886;2023-02-03T01:09:04;4.50;;;1.20;;
49450;SDS011;35336;48.400;10.886;2023-02-03T01:09:19;5.53;;;1.10;;
49450;SDS011;35336;48.400;10.886;2023-02-03T01:09:35;5.30;;;1.20;;
49450;SDS011;35336;48.400;10.886;2023-02-03T01:09:51;5.55;;;1.25;;
49450;SDS011;35336;48.400;10.886;2023-02-03T01:10:06;6.17;;;1.60;;
49450;SDS011;35336;48.400;10.886;2023-02-03T01:10:22;5.75;;;1.40;;
49450;SDS011;35336;48.400;10.886;2023-02-03T01:10:37;5.17;;;1.03;;
49450;SDS011;35336;48.400;10.886;2023-02-03T01:10:53;5.72;;;1.17;;
49450;SDS011;35336;48.400;10.886;2023-02-03T01:11:10;5.97;;;1.70;;
49450;SDS011;35336;48.400;10.886;2023-02-03T01:11:27;4.57;;;1.60;;
49450;SDS011;35336;48.400;10.886;2023-02-03T01:11:43;5.15;;;1.20;;
49450;SDS011;35336;48.400;10.886;2023-02-03T01:11:58;6.00;;;1.30;;
49450;SDS011;35336;48.400;10.886;2023-02-03T01:12:13;7.50;;;1.47;;
49450;SDS011;35336;48.400;10.886;2023-02-03T01:12:29;7.00;;;1.70;;
49450;SDS011;35336;48.400;10.886;2023-02-03T01:12:46;5.15;;;1.45;;
49450;SDS011;35336;48.400;10.886;2023-02-03T01:13:01;4.25;;;1.20;;
49450;SDS011;35336;48.400;10.886;2023-02-03T01:13:17;5.07;;;1.30;;
49450;SDS011;35336;48.400;10.886;2023-02-03T01:13:32;5.83;;;1.33;;
49450;SDS011;35336;48.400;10.886;2023-02-03T01:13:47;5.43;;;1.20;;
49450;SDS011;35336;48.400;10.886;2023-02-03T01:14:03;6.00;;;1.30;;
49450;SDS011;35336;48.400;10.886;2023-02-03T01:14:18;6.68;;;1.50;;
49450;SDS011;35336;48.400;10.886;2023-02-03T01:14:34;4.87;;;1.60;;
49450;SDS011;35336;48.400;10.886;2023-02-03T01:14:49;5.35;;;1.40;;
49450;SDS011;35336;48.400;10.886;2023-02-03T01:15:05;6.43;;;1.20;;
49450;SDS011;35336;48.400;10.886;2023-02-03T01:15:20;6.67;;;1.37;;
49450;SDS011;35336;48.400;10.886;2023-02-03T01:15:36;5.00;;;1.10;;
49450;SDS011;35336;48.400;10.886;2023-02-03T01:15:51;4.90;;;1.17;;
49450;SDS011;35336;48.400;10.886;2023-02-03T01:16:07;5.60;;;1.37;;
49450;SDS011;35336;48.400;10.886;2023-02-03T01:16:23;4.55;;;1.10;;
49450;SDS011;35336;48.400;10.886;2023-02-03T01:16:38;5.17;;;1.27;;
49450;SDS011;35336;48.400;10.886;2023-02-03T01:16:54;4.63;;;1.50;;
49450;SDS011;35336;48.400;10.886;2023-02-03T01:17:09;6.10;;;1.45;;
49450;SDS011;35336;48.400;10.886;2023-02-03T01:17:25;6.57;;;1.50;;
49450;SDS011;35336;48.400;10.886;2023-02-03T01:17:40;6.07;;;1.70;;
49450;SDS011;35336;48.400;10.886;2023-02-03T01:17:55;5.03;;;1.35;;
49450;SDS011;35336;48.400;10.886;2023-02-03T01:18:11;3.60;;;1.10;;
49450;SDS011;35336;48.400;10.886;2023-02-03T01:18:26;4.60;;;1.20;;
49450;SDS011;35336;48.400;10.886;2023-02-03T01:18:42;5.60;;;1.33;;
49450;SDS011;35336;48.400;10.886;2023-02-03T01:18:58;4.95;;;1.33;;
49450;SDS011;35336;48.400;10.886;2023-02-03T01:19:14;3.37;;;1.30;;
49450;SDS011;35336;48.400;10.886;2023-02-03T01:19:29;4.70;;;1.20;;
49450;SDS011;35336;48.400;10.886;2023-02-03T01:19:44;4.82;;;1.02;;
49450;SDS011;35336;48.400;10.886;2023-02-03T01:20:00;3.77;;;1.07;;
49450;SDS011;35336;48.400;10.886;2023-02-03T01:20:15;5.00;;;1.20;;
49450;SDS011;35336;48.400;10.886;2023-02-03T01:20:30;4.67;;;1.20;;
49450;SDS011;35336;48.400;10.886;2023-02-03T01:20:46;3.40;;;1.03;;
49450;SDS011;35336;48.400;10.886;2023-02-03T01:21:05;2.73;;;1.00;;
49450;SDS011;35336;48.400;10.886;2023-02-03T01:21:25;5.13;;;1.40;;
49450;SDS011;35336;48.400;10.886;2023-02-03T01:21:41;5.73;;;1.37;;
49450;SDS011;35336;48.400;10.886;2023-02-03T01:21:56;4.18;;;1.13;;
49450;SDS011;35336;48.400;10.886;2023-02-03T01:22:11;4.20;;;1.20;;
49450;SDS011;35336;48.400;10.886;2023-02-03T01:22:29;7.37;;;1.53;;
49450;SDS011;35336;48.400;10.886;2023-02-03T01:22:45;8.90;;;1.58;;
49450;SDS011;35336;48.400;10.886;2023-02-03T01:23:01;5.90;;;1.30;;
49450;SDS011;35336;48.400;10.886;2023-02-03T01:23:17;4.40;;;1.13;;
49450;SDS011;35336;48.400;10.886;2023-02-03T01:23:32;3.42;;;1.10;;
49450;SDS011;35336;48.400;10.886;2023-02-03T01:23:48;4.68;;;1.20;;
49450;SDS011;35336;48.400;10.886;2023-02-03T01:24:04;5.80;;;1.30;;
49450;SDS011;35336;48.400;10.886;2023-02-03T01:24:19;5.73;;;1.50;;
49450;SDS011;35336;48.400;10.886;2023-02-03T01:24:34;3.80;;;1.27;;
49450;SDS011;35336;48.400;10.886;2023-02-03T01:24:50;3.63;;;1.25;;
49450;SDS011;35336;48.400;10.886;2023-02-03T01:25:05;4.33;;;1.40;;
49450;SDS011;35336;48.400;10.886;2023-02-03T01:25:21;4.68;;;1.60;;
49450;SDS011;35336;48.400;10.886;2023-02-03T01:25:36;3.93;;;1.40;;
49450;SDS011;35336;48.400;10.886;2023-02-03T01:25:52;2.90;;;1.10;;
49450;SDS011;35336;48.400;10.886;2023-02-03T01:26:08;3.20;;;0.93;;
49450;SDS011;35336;48.400;10.886;2023-02-03T01:26:25;3.10;;;0.90;;
49450;SDS011;35336;48.400;10.886;2023-02-03T01:26:41;4.63;;;1.00;;
49450;SDS011;35336;48.400;10.886;2023-02-03T01:26:56;4.27;;;1.03;;
49450;SDS011;35336;48.400;10.886;2023-02-03T01:27:11;4.20;;;1.10;;
49450;SDS011;35336;48.400;10.886;2023-02-03T01:27:27;4.57;;;1.35;;
49450;SDS011;35336;48.400;10.886;2023-02-03T01:27:42;3.10;;;1.30;;
49450;SDS011;35336;48.400;10.886;2023-02-03T01:27:57;3.27;;;1.00;;
49450;SDS011;35336;48.400;10.886;2023-02-03T01:28:13;3.77;;;1.00;;
49450;SDS011;35336;48.400;10.886;2023-02-03T01:28:28;3.60;;;1.10;;
49450;SDS011;35336;48.400;10.886;2023-02-03T01:28:49;4.50;;;1.13;;
49450;SDS011;35336;48.400;10.886;2023-02-03T01:29:14;2.80;;;1.15;;
49450;SDS011;35336;48.400;10.886;2023-02-03T01:29:29;4.10;;;1.30;;
49450;SDS011;35336;48.400;10.886;2023-02-03T01:29:44;5.97;;;1.67;;
49450;SDS011;35336;48.400;10.886;2023-02-03T01:30:00;4.43;;;1.35;;
49450;SDS011;35336;48.400;10.886;2023-02-03T01:30:15;3.30;;;1.20;;
49450;SDS011;35336;48.400;10.886;2023-02-03T01:30:30;4.50;;;1.27;;
49450;SDS011;35336;48.400;10.886;2023-02-03T01:30:46;3.60;;;1.10;;
49450;SDS011;35336;48.400;10.886;2023-02-03T01:31:10;2.67;;;0.93;;
49450;SDS011;35336;48.400;10.886;2023-02-03T01:31:29;4.18;;;1.23;;
49450;SDS011;35336;48.400;10.886;2023-02-03T01:31:46;2.47;;;0.90;;
49450;SDS011;35336;48.400;10.886;2023-02-03T01:32:01;3.80;;;0.90;;
49450;SDS011;35336;48.400;10.886;2023-02-03T01:32:16;5.32;;;1.10;;
49450;SDS011;35336;48.400;10.886;2023-02-03T01:32:32;6.53;;;1.10;;
49450;SDS011;35336;48.400;10.886;2023-02-03T01:32:47;5.77;;;1.00;;
49450;SDS011;35336;48.400;10.886;2023-02-03T01:33:02;4.93;;;0.90;;